Terminal Aerodrome Forecast
Issued by NWS

Home | Current Version | Previous Version | Text Only | Print | Product List | Glossary On
Versions: 1 2 3 4 5 6 7 8 9 10 11 12 13 14 15 16 17 18 19
000
FTUS46 KLOX 191300 CCA
TAFSBA
TAF COR
KSBA 191317Z 1913/2012 VRB03KT P6SM OVC015
     FM191800 18005KT P6SM OVC022
     FM192100 24007KT P6SM SCT025
     FM200300 VRB03KT P6SM OVC015=

USA.gov is the U.S. government's official web portal to all federal, state and local government web resources and services.